sensor_id;sensor_type;location;lat;lon;timestamp;pressure;altitude;pressure_sealevel;temperature;humidity
52797;BME280;38666;43.348;12.584;2023-01-27T06:54:15;94827.91;;;-0.43;92.21
52797;BME280;38666;43.348;12.584;2023-01-27T06:56:40;94847.44;;;-0.26;91.03
52797;BME280;38666;43.348;12.584;2023-01-27T06:59:06;94832.19;;;-0.22;90.88
52797;BME280;38666;43.348;12.584;2023-01-27T07:01:31;94838.56;;;-0.10;89.60
52797;BME280;38666;43.348;12.584;2023-01-27T07:03:57;94857.50;;;-0.03;89.68
52797;BME280;38666;43.348;12.584;2023-01-27T07:06:22;94822.13;;;0.11;88.18
52797;BME280;38666;43.348;12.584;2023-01-27T07:08:47;94839.16;;;0.19;87.53
52797;BME280;38666;43.348;12.584;2023-01-27T07:11:15;94827.00;;;0.25;87.06
52797;BME280;38666;43.348;12.584;2023-01-27T07:13:40;94846.94;;;0.24;87.70
52797;BME280;38666;43.348;12.584;2023-01-27T07:16:06;94823.47;;;0.41;85.71
52797;BME280;38666;43.348;12.584;2023-01-27T07:18:31;94855.72;;;0.61;84.34
52797;BME280;38666;43.348;12.584;2023-01-27T07:20:57;94851.31;;;0.72;83.93
52797;BME280;38666;43.348;12.584;2023-01-27T07:23:22;94858.31;;;1.00;82.27
52797;BME280;38666;43.348;12.584;2023-01-27T07:25:48;94864.47;;;1.01;80.94
52797;BME280;38666;43.348;12.584;2023-01-27T07:28:13;94867.44;;;1.39;78.92
52797;BME280;38666;43.348;12.584;2023-01-27T07:30:39;94856.72;;;1.70;75.95
52797;BME280;38666;43.348;12.584;2023-01-27T07:33:05;94867.34;;;1.86;75.08
52797;BME280;38666;43.348;12.584;2023-01-27T07:35:31;94857.75;;;2.15;72.81
52797;BME280;38666;43.348;12.584;2023-01-27T07:37:57;94874.69;;;2.16;71.97
52797;BME280;38666;43.348;12.584;2023-01-27T07:40:23;94870.41;;;2.11;71.09
52797;BME280;38666;43.348;12.584;2023-01-27T07:42:48;94895.44;;;2.12;71.86
52797;BME280;38666;43.348;12.584;2023-01-27T07:45:14;94876.88;;;2.37;70.81
52797;BME280;38666;43.348;12.584;2023-01-27T07:47:39;94870.31;;;2.69;69.16
52797;BME280;38666;43.348;12.584;2023-01-27T07:50:05;94914.78;;;2.83;68.08
52797;BME280;38666;43.348;12.584;2023-01-27T07:52:30;94870.22;;;2.96;67.46
52797;BME280;38666;43.348;12.584;2023-01-27T07:54:56;94893.22;;;3.66;63.13
52797;BME280;38666;43.348;12.584;2023-01-27T07:57:21;94878.53;;;3.67;63.17
52797;BME280;38666;43.348;12.584;2023-01-27T07:59:47;94879.56;;;4.01;61.88
52797;BME280;38666;43.348;12.584;2023-01-27T08:02:12;94870.94;;;3.80;63.94
52797;BME280;38666;43.348;12.584;2023-01-27T08:04:38;94879.81;;;3.81;62.89
52797;BME280;38666;43.348;12.584;2023-01-27T08:07:04;94885.19;;;4.41;60.83
52797;BME280;38666;43.348;12.584;2023-01-27T08:09:30;94878.50;;;5.38;56.95
52797;BME280;38666;43.348;12.584;2023-01-27T08:11:55;94865.69;;;5.06;57.86
52797;BME280;38666;43.348;12.584;2023-01-27T08:14:20;94886.97;;;5.15;56.73
52797;BME280;38666;43.348;12.584;2023-01-27T08:16:46;94874.97;;;5.05;58.20
52797;BME280;38666;43.348;12.584;2023-01-27T08:19:11;94903.63;;;5.21;57.54
52797;BME280;38666;43.348;12.584;2023-01-27T08:21:37;94876.94;;;5.23;56.73
52797;BME280;38666;43.348;12.584;2023-01-27T08:24:02;94873.44;;;5.22;56.10
52797;BME280;38666;43.348;12.584;2023-01-27T08:26:28;94879.03;;;4.48;58.75
52797;BME280;38666;43.348;12.584;2023-01-27T08:28:53;94882.94;;;4.54;59.72
52797;BME280;38666;43.348;12.584;2023-01-27T08:31:19;94895.09;;;4.15;59.85
52797;BME280;38666;43.348;12.584;2023-01-27T08:33:50;94869.75;;;3.78;61.87
52797;BME280;38666;43.348;12.584;2023-01-27T08:36:17;94876.75;;;3.37;63.11
52797;BME280;38666;43.348;12.584;2023-01-27T08:38:43;94883.41;;;3.05;63.96
52797;BME280;38666;43.348;12.584;2023-01-27T08:41:13;94889.44;;;2.91;66.55
52797;BME280;38666;43.348;12.584;2023-01-27T08:43:39;94904.00;;;2.21;69.99
52797;BME280;38666;43.348;12.584;2023-01-27T08:46:06;94883.44;;;1.82;71.59
52797;BME280;38666;43.348;12.584;2023-01-27T08:48:32;94914.34;;;2.15;71.28
52797;BME280;38666;43.348;12.584;2023-01-27T08:50:58;94899.16;;;2.65;69.35
52797;BME280;38666;43.348;12.584;2023-01-27T08:53:25;94921.78;;;2.57;68.83
52797;BME280;38666;43.348;12.584;2023-01-27T08:55:51;94900.56;;;1.94;71.79
52797;BME280;38666;43.348;12.584;2023-01-27T08:58:19;94928.22;;;2.48;70.26
52797;BME280;38666;43.348;12.584;2023-01-27T09:00:44;94929.81;;;2.84;68.68
52797;BME280;38666;43.348;12.584;2023-01-27T09:03:10;94899.00;;;2.50;70.04
52797;BME280;38666;43.348;12.584;2023-01-27T09:05:35;94914.78;;;2.21;73.19
52797;BME280;38666;43.348;12.584;2023-01-27T09:08:02;94901.28;;;2.48;70.90
52797;BME280;38666;43.348;12.584;2023-01-27T09:10:27;94924.00;;;1.93;74.44
52797;BME280;38666;43.348;12.584;2023-01-27T09:12:53;94936.84;;;2.03;73.43
52797;BME280;38666;43.348;12.584;2023-01-27T09:15:18;94920.47;;;1.89;74.02
52797;BME280;38666;43.348;12.584;2023-01-27T09:17:44;94914.81;;;1.98;74.59
52797;BME280;38666;43.348;12.584;2023-01-27T09:20:10;94924.16;;;2.31;72.37
52797;BME280;38666;43.348;12.584;2023-01-27T09:22:37;94914.97;;;2.36;71.98
52797;BME280;38666;43.348;12.584;2023-01-27T09:25:06;94932.84;;;2.48;72.29
52797;BME280;38666;43.348;12.584;2023-01-27T09:27:31;94914.44;;;2.53;71.40
52797;BME280;38666;43.348;12.584;2023-01-27T09:29:57;94919.94;;;3.37;67.55
52797;BME280;38666;43.348;12.584;2023-01-27T09:32:22;94923.47;;;3.90;65.11
52797;BME280;38666;43.348;12.584;2023-01-27T09:34:47;94926.72;;;3.20;67.60
52797;BME280;38666;43.348;12.584;2023-01-27T09:37:13;94943.81;;;3.35;68.08
52797;BME280;38666;43.348;12.584;2023-01-27T09:39:45;94932.50;;;3.60;65.83
52797;BME280;38666;43.348;12.584;2023-01-27T09:47:59;94930.31;;;2.93;68.39
52797;BME280;38666;43.348;12.584;2023-01-27T09:56:07;94966.59;;;2.38;71.80
52797;BME280;38666;43.348;12.584;2023-01-27T10:06:45;94935.66;;;3.69;65.91
52797;BME280;38666;43.348;12.584;2023-01-27T10:29:10;94947.81;;;5.76;58.49
52797;BME280;38666;43.348;12.584;2023-01-27T10:31:47;94932.34;;;5.91;54.51
52797;BME280;38666;43.348;12.584;2023-01-27T10:37:07;94915.78;;;4.63;59.01
52797;BME280;38666;43.348;12.584;2023-01-27T10:42:37;94919.38;;;4.82;57.84
52797;BME280;38666;43.348;12.584;2023-01-27T10:45:19;94933.06;;;4.40;60.81
52797;BME280;38666;43.348;12.584;2023-01-27T10:48:11;94931.19;;;3.92;62.44
52797;BME280;38666;43.348;12.584;2023-01-27T10:50:44;94935.38;;;3.82;64.19
52797;BME280;38666;43.348;12.584;2023-01-27T10:55:51;94938.00;;;3.71;64.26
52797;BME280;38666;43.348;12.584;2023-01-27T10:58:41;94934.00;;;3.54;65.50
52797;BME280;38666;43.348;12.584;2023-01-27T11:01:13;94934.84;;;4.14;63.92
52797;BME280;38666;43.348;12.584;2023-01-27T11:03:52;94920.72;;;3.79;64.96
52797;BME280;38666;43.348;12.584;2023-01-27T11:06:23;94953.22;;;3.48;66.49
52797;BME280;38666;43.348;12.584;2023-01-27T11:09:05;94937.78;;;3.45;67.09
52797;BME280;38666;43.348;12.584;2023-01-27T11:11:33;94934.50;;;3.70;65.63
52797;BME280;38666;43.348;12.584;2023-01-27T11:16:54;94921.28;;;3.16;69.25
52797;BME280;38666;43.348;12.584;2023-01-27T11:21:55;94921.88;;;2.98;69.65
52797;BME280;38666;43.348;12.584;2023-01-27T11:24:45;94933.44;;;3.37;68.09
52797;BME280;38666;43.348;12.584;2023-01-27T11:30:33;94915.72;;;3.85;63.52
52797;BME280;38666;43.348;12.584;2023-01-27T11:35:52;94896.06;;;4.55;59.53
52797;BME280;38666;43.348;12.584;2023-01-27T11:38:20;94902.50;;;5.54;57.86
52797;BME280;38666;43.348;12.584;2023-01-27T11:40:46;94904.53;;;8.16;50.14
52797;BME280;38666;43.348;12.584;2023-01-27T11:43:18;94924.09;;;8.84;45.42
52797;BME280;38666;43.348;12.584;2023-01-27T11:45:44;94917.66;;;7.22;48.87
52797;BME280;38666;43.348;12.584;2023-01-27T11:48:13;94916.84;;;8.31;47.67
52797;BME280;38666;43.348;12.584;2023-01-27T11:50:41;94914.94;;;10.33;43.06
52797;BME280;38666;43.348;12.584;2023-01-27T11:53:21;94885.47;;;9.24;44.44
52797;BME280;38666;43.348;12.584;2023-01-27T11:55:53;94909.69;;;10.22;42.01
52797;BME280;38666;43.348;12.584;2023-01-27T11:58:24;94922.94;;;10.88;40.63
52797;BME280;38666;43.348;12.584;2023-01-27T12:00:58;94902.56;;;10.28;40.89
52797;BME280;38666;43.348;12.584;2023-01-27T12:03:51;94893.94;;;11.85;38.50
52797;BME280;38666;43.348;12.584;2023-01-27T12:06:39;94910.50;;;11.78;38.54
52797;BME280;38666;43.348;12.584;2023-01-27T12:09:34;94896.50;;;11.92;38.42
52797;BME280;38666;43.348;12.584;2023-01-27T12:12:10;94889.56;;;12.04;37.24
52797;BME280;38666;43.348;12.584;2023-01-27T12:14:51;94902.03;;;11.72;37.65
52797;BME280;38666;43.348;12.584;2023-01-27T12:17:23;94911.53;;;10.05;41.31
52797;BME280;38666;43.348;12.584;2023-01-27T12:19:51;94886.94;;;7.86;46.00
52797;BME280;38666;43.348;12.584;2023-01-27T12:22:36;94890.03;;;6.45;49.33
52797;BME280;38666;43.348;12.584;2023-01-27T12:25:05;94914.13;;;5.81;51.56
52797;BME280;38666;43.348;12.584;2023-01-27T12:27:50;94915.53;;;4.90;54.96
52797;BME280;38666;43.348;12.584;2023-01-27T12:30:26;94909.38;;;5.01;55.86
52797;BME280;38666;43.348;12.584;2023-01-27T12:32:53;94904.78;;;5.20;55.34
52797;BME280;38666;43.348;12.584;2023-01-27T12:35:33;94890.13;;;5.68;55.09
52797;BME280;38666;43.348;12.584;2023-01-27T12:38:03;94903.66;;;7.27;50.39
52797;BME280;38666;43.348;12.584;2023-01-27T12:40:31;94902.25;;;7.01;50.00
52797;BME280;38666;43.348;12.584;2023-01-27T12:45:30;94900.28;;;7.69;48.88
52797;BME280;38666;43.348;12.584;2023-01-27T12:53:22;94890.59;;;10.87;40.79
52797;BME280;38666;43.348;12.584;2023-01-27T12:55:57;94871.19;;;10.81;41.25
52797;BME280;38666;43.348;12.584;2023-01-27T12:58:56;94872.63;;;11.60;39.26
52797;BME280;38666;43.348;12.584;2023-01-27T13:03:54;94876.06;;;11.10;40.08
52797;BME280;38666;43.348;12.584;2023-01-27T13:06:30;94880.28;;;10.94;40.21
52797;BME280;38666;43.348;12.584;2023-01-27T13:08:59;94890.53;;;9.78;42.46
52797;BME280;38666;43.348;12.584;2023-01-27T13:11:38;94899.91;;;9.21;44.01
52797;BME280;38666;43.348;12.584;2023-01-27T13:14:15;94892.72;;;8.34;45.61
52797;BME280;38666;43.348;12.584;2023-01-27T13:16:49;94884.25;;;7.25;48.86
52797;BME280;38666;43.348;12.584;2023-01-27T13:19:16;94897.31;;;6.77;50.09
52797;BME280;38666;43.348;12.584;2023-01-27T13:21:44;94887.03;;;5.88;52.43
52797;BME280;38666;43.348;12.584;2023-01-27T13:24:18;94888.19;;;5.39;54.69
52797;BME280;38666;43.348;12.584;2023-01-27T13:26:48;94906.13;;;4.62;56.23
52797;BME280;38666;43.348;12.584;2023-01-27T13:29:18;94893.06;;;4.86;57.56
52797;BME280;38666;43.348;12.584;2023-01-27T13:31:57;94890.13;;;5.79;54.51
52797;BME280;38666;43.348;12.584;2023-01-27T13:34:45;94889.53;;;7.51;48.78
52797;BME280;38666;43.348;12.584;2023-01-27T13:37:18;94885.63;;;7.55;48.80
52797;BME280;38666;43.348;12.584;2023-01-27T13:42:58;94880.69;;;8.35;46.25
52797;BME280;38666;43.348;12.584;2023-01-27T13:45:43;94885.63;;;9.93;43.52
52797;BME280;38666;43.348;12.584;2023-01-27T13:48:26;94871.59;;;11.37;39.54
52797;BME280;38666;43.348;12.584;2023-01-27T13:53:31;94876.41;;;11.99;38.80
52797;BME280;38666;43.348;12.584;2023-01-27T14:01:23;94878.31;;;8.75;44.22
52797;BME280;38666;43.348;12.584;2023-01-27T14:06:51;94900.75;;;6.89;48.96
52797;BME280;38666;43.348;12.584;2023-01-27T14:09:55;94892.28;;;6.68;49.74
52797;BME280;38666;43.348;12.584;2023-01-27T14:15:13;94904.94;;;8.57;44.67
52797;BME280;38666;43.348;12.584;2023-01-27T14:17:53;94914.00;;;7.51;47.56
52797;BME280;38666;43.348;12.584;2023-01-27T14:20:33;94917.19;;;8.34;45.85
52797;BME280;38666;43.348;12.584;2023-01-27T14:26:36;94910.59;;;7.35;47.43
52797;BME280;38666;43.348;12.584;2023-01-27T14:40:26;94912.53;;;5.32;54.06
52797;BME280;38666;43.348;12.584;2023-01-27T14:45:22;94925.66;;;5.23;56.13
52797;BME280;38666;43.348;12.584;2023-01-27T14:53:07;94937.34;;;4.45;58.29
52797;BME280;38666;43.348;12.584;2023-01-27T14:55:49;94933.38;;;3.71;60.86
52797;BME280;38666;43.348;12.584;2023-01-27T14:58:28;94921.81;;;3.75;60.71
52797;BME280;38666;43.348;12.584;2023-01-27T15:01:07;94917.03;;;3.57;62.65
52797;BME280;38666;43.348;12.584;2023-01-27T15:27:23;94945.94;;;2.49;67.69
52797;BME280;38666;43.348;12.584;2023-01-27T15:29:50;94945.94;;;2.49;67.91
52797;BME280;38666;43.348;12.584;2023-01-27T15:34:50;94950.81;;;2.67;65.42
52797;BME280;38666;43.348;12.584;2023-01-27T15:37:24;94950.94;;;3.51;64.38
52797;BME280;38666;43.348;12.584;2023-01-27T15:42:50;94940.81;;;5.89;53.99
52797;BME280;38666;43.348;12.584;2023-01-27T15:45:29;94959.78;;;5.60;54.04
52797;BME280;38666;43.348;12.584;2023-01-27T15:48:00;94952.47;;;6.23;52.32
52797;BME280;38666;43.348;12.584;2023-01-27T15:50:30;94962.84;;;5.40;53.03
52797;BME280;38666;43.348;12.584;2023-01-27T15:53:20;94953.63;;;4.56;56.36
52797;BME280;38666;43.348;12.584;2023-01-27T15:55:50;94960.78;;;3.73;60.13
52797;BME280;38666;43.348;12.584;2023-01-27T15:58:36;94980.00;;;3.27;62.72
52797;BME280;38666;43.348;12.584;2023-01-27T16:01:09;94971.41;;;2.83;65.63
52797;BME280;38666;43.348;12.584;2023-01-27T16:03:37;94971.47;;;2.28;68.53
52797;BME280;38666;43.348;12.584;2023-01-27T16:06:11;94973.41;;;2.32;70.28
52797;BME280;38666;43.348;12.584;2023-01-27T16:08:46;94981.88;;;2.30;71.28
52797;BME280;38666;43.348;12.584;2023-01-27T16:11:23;94984.59;;;2.07;73.25
52797;BME280;38666;43.348;12.584;2023-01-27T16:16:38;94981.03;;;1.75;75.71
52797;BME280;38666;43.348;12.584;2023-01-27T16:24:40;94982.88;;;1.71;77.57
52797;BME280;38666;43.348;12.584;2023-01-27T16:29:54;94992.75;;;1.40;79.02
52797;BME280;38666;43.348;12.584;2023-01-27T16:32:23;94991.19;;;1.39;79.23
52797;BME280;38666;43.348;12.584;2023-01-27T16:34:55;95002.25;;;1.57;78.33
52797;BME280;38666;43.348;12.584;2023-01-27T16:37:30;94993.41;;;1.33;79.96
52797;BME280;38666;43.348;12.584;2023-01-27T16:40:12;95017.81;;;1.24;80.71
52797;BME280;38666;43.348;12.584;2023-01-27T16:43:04;95006.94;;;1.17;80.85
52797;BME280;38666;43.348;12.584;2023-01-27T16:45:44;95015.34;;;1.15;82.17
52797;BME280;38666;43.348;12.584;2023-01-27T16:48:27;95026.88;;;1.16;81.68
52797;BME280;38666;43.348;12.584;2023-01-27T16:51:06;95013.31;;;1.08;81.00
52797;BME280;38666;43.348;12.584;2023-01-27T16:53:31;95021.38;;;1.08;81.72
52797;BME280;38666;43.348;12.584;2023-01-27T16:56:03;95022.63;;;1.15;81.23
52797;BME280;38666;43.348;12.584;2023-01-27T16:58:30;95011.22;;;1.02;81.46
52797;BME280;38666;43.348;12.584;2023-01-27T17:00:57;95030.56;;;1.07;81.78
52797;BME280;38666;43.348;12.584;2023-01-27T17:03:33;95029.69;;;1.03;82.54
52797;BME280;38666;43.348;12.584;2023-01-27T17:06:06;95022.78;;;1.02;82.52
52797;BME280;38666;43.348;12.584;2023-01-27T17:08:42;95033.53;;;1.02;82.68
52797;BME280;38666;43.348;12.584;2023-01-27T17:11:23;95038.75;;;0.95;82.92
52797;BME280;38666;43.348;12.584;2023-01-27T17:16:33;95043.50;;;1.02;82.81
52797;BME280;38666;43.348;12.584;2023-01-27T17:19:15;95026.09;;;0.95;82.41
52797;BME280;38666;43.348;12.584;2023-01-27T17:21:52;95036.59;;;1.01;82.72
52797;BME280;38666;43.348;12.584;2023-01-27T17:24:25;95044.56;;;0.97;82.86
52797;BME280;38666;43.348;12.584;2023-01-27T17:27:02;95036.09;;;1.15;81.84
52797;BME280;38666;43.348;12.584;2023-01-27T17:29:35;95027.44;;;1.05;81.37
52797;BME280;38666;43.348;12.584;2023-01-27T17:32:25;95032.47;;;1.07;80.62
52797;BME280;38666;43.348;12.584;2023-01-27T17:34:56;95032.41;;;1.23;79.87
52797;BME280;38666;43.348;12.584;2023-01-27T17:37:23;95042.97;;;1.12;79.45
52797;BME280;38666;43.348;12.584;2023-01-27T17:39:54;95030.41;;;1.00;80.22
52797;BME280;38666;43.348;12.584;2023-01-27T17:42:20;95045.44;;;1.01;80.46
52797;BME280;38666;43.348;12.584;2023-01-27T17:44:46;95046.69;;;1.07;80.05
52797;BME280;38666;43.348;12.584;2023-01-27T17:47:14;95049.66;;;1.02;80.27
52797;BME280;38666;43.348;12.584;2023-01-27T17:49:42;95050.47;;;1.03;80.14
52797;BME280;38666;43.348;12.584;2023-01-27T17:52:22;95042.31;;;1.19;79.72
52797;BME280;38666;43.348;12.584;2023-01-27T17:54:49;95050.69;;;1.14;80.42
52797;BME280;38666;43.348;12.584;2023-01-27T17:57:20;95053.66;;;1.08;79.91
52797;BME280;38666;43.348;12.584;2023-01-27T17:59:55;95046.69;;;1.07;80.16
52797;BME280;38666;43.348;12.584;2023-01-27T18:02:34;95055.28;;;1.13;78.17
52797;BME280;38666;43.348;12.584;2023-01-27T18:05:04;95062.56;;;1.13;78.16
52797;BME280;38666;43.348;12.584;2023-01-27T18:07:31;95065.09;;;1.05;78.94
52797;BME280;38666;43.348;12.584;2023-01-27T18:09:57;95067.28;;;1.19;77.47
52797;BME280;38666;43.348;12.584;2023-01-27T18:12:33;95069.69;;;1.25;76.79
52797;BME280;38666;43.348;12.584;2023-01-27T18:18:20;95073.59;;;1.07;77.11
52797;BME280;38666;43.348;12.584;2023-01-27T18:23:43;95082.53;;;1.31;72.89
52797;BME280;38666;43.348;12.584;2023-01-27T18:28:41;95083.66;;;1.30;72.91
52797;BME280;38666;43.348;12.584;2023-01-27T18:31:22;95065.81;;;1.42;72.97
52797;BME280;38666;43.348;12.584;2023-01-27T18:36:32;95080.28;;;1.34;73.56
52797;BME280;38666;43.348;12.584;2023-01-27T18:39:01;95069.97;;;1.59;71.60
52797;BME280;38666;43.348;12.584;2023-01-27T18:41:28;95080.81;;;1.43;72.35
52797;BME280;38666;43.348;12.584;2023-01-27T18:43:58;95083.50;;;1.43;72.17
52797;BME280;38666;43.348;12.584;2023-01-27T18:46:25;95090.47;;;1.44;71.25
52797;BME280;38666;43.348;12.584;2023-01-27T18:48:51;95059.44;;;1.30;71.23
52797;BME280;38666;43.348;12.584;2023-01-27T18:51:16;95065.19;;;1.49;71.11
